Time;durP1;ratioP1;P1;durP2;ratioP2;P2;SDS_P1;SDS_P2;PMS_P1;PMS_P2;Temp;Humidity;BMP_temperature;BMP_pressure;BME280_temperature;BME280_humidity;BME280_pressure;Samples;Min_cycle;Max_cycle;Signal;HPM_P1;HPM_P2
2023/04/11 00:00:07;;;;;;;12.00;2.45;;;8.30;99.90;;;;;;4969112;28;20046;-68
2023/04/11 00:02:39;;;;;;;6.38;1.70;;;;;;;;;;4986670;28;20403;-69
2023/04/11 00:05:08;;;;;;;4.35;1.65;;;;;;;;;;4985550;28;20043;-69
2023/04/11 00:07:34;;;;;;;7.15;1.63;;;;;;;;;;4968675;28;20050;-69
2023/04/11 00:10:01;;;;;;;6.70;2.03;;;;;;;;;;4969107;28;20096;-69
2023/04/11 00:12:27;;;;;;;10.07;1.80;;;;;;;;;;4986637;28;20069;-69
2023/04/11 00:14:54;;;;;;;6.18;1.63;;;;;;;;;;4968756;28;20039;-69
2023/04/11 00:17:20;;;;;;;6.60;1.75;;;;;;;;;;4969350;28;20705;-69
2023/04/11 00:19:47;;;;;;;9.05;1.92;;;;;;;;;;4986469;28;20133;-69
2023/04/11 00:22:15;;;;;;;6.40;1.90;;;;;;;;;;4966841;28;20054;-69
2023/04/11 00:24:41;;;;;;;8.48;1.67;;;;;;;;;;4986580;28;20060;-69
2023/04/11 00:27:07;;;;;;;5.53;1.95;;;;;;;;;;4968389;28;20143;-69
2023/04/11 00:29:34;;;;;;;8.30;1.83;;;;;;;;;;4986100;28;20043;-69
2023/04/11 00:32:00;;;;;;;8.20;1.75;;;;;;;;;;4968403;28;20050;-69
2023/04/11 00:34:26;;;;;;;7.57;2.53;;;;;;;;;;4952455;28;20046;-69
2023/04/11 00:36:52;;;;;;;6.70;1.83;;;8.00;99.90;;;;;;4985829;28;20092;-69
2023/04/11 00:39:19;;;;;;;10.25;2.55;;;;;;;;;;4968099;28;20058;-69
2023/04/11 00:41:45;;;;;;;7.68;2.42;;;;;;;;;;4968268;28;20053;-69
2023/04/11 00:44:12;;;;;;;8.70;2.65;;;;;;;;;;4986247;28;20046;-69
2023/04/11 00:46:42;;;;;;;15.43;2.70;;;;;;;;;;4985745;28;20137;-69
2023/04/11 00:49:09;;;;;;;5.38;2.13;;;;;;;;;;4967829;28;20385;-69
2023/04/11 00:51:35;;;;;;;8.57;2.30;;;;;;;;;;4986159;28;20420;-69
2023/04/11 00:54:01;;;;;;;6.35;1.90;;;;;;;;;;4967767;28;20404;-69
2023/04/11 00:56:28;;;;;;;9.80;3.75;;;;;;;;;;4968019;28;20053;-69
2023/04/11 00:58:54;;;;;;;11.20;3.20;;;;;;;;;;4985569;28;20503;-69
2023/04/11 01:01:22;;;;;;;14.10;2.38;;;;;;;;;;4968135;28;20129;-69
2023/04/11 01:03:48;;;;;;;12.57;2.60;;;;;;;;;;4967388;28;20057;-69
2023/04/11 01:06:16;;;;;;;8.93;2.35;;;;;;;;;;4972074;28;20053;-69
2023/04/11 01:08:43;;;;;;;12.30;2.65;;;;;;;;;;4971966;28;20050;-69
2023/04/11 01:11:09;;;;;;;6.15;2.05;;;;;;;;;;4971743;28;20100;-69
2023/04/11 01:13:39;;;;;;;7.28;2.20;;;;;;;;;;4971800;28;20048;-69
2023/04/11 01:16:05;;;;;;;9.30;2.03;;;;;;;;;;4989468;28;20057;-69
2023/04/11 01:18:31;;;;;;;10.57;2.40;;;;;;;;;;4987851;28;20491;-69
2023/04/11 01:20:59;;;;;;;5.82;1.58;;;;;;;;;;4989337;28;20500;-69
2023/04/11 01:23:25;;;;;;;10.18;1.88;;;;;;;;;;4989326;28;20046;-69
2023/04/11 01:25:51;;;;;;;3.88;1.40;;;;;;;;;;4971500;28;20172;-69
2023/04/11 01:28:18;;;;;;;7.30;1.65;;;;;;;;;;4971300;28;20055;-69
2023/04/11 01:30:44;;;;;;;4.28;1.58;;;;;;;;;;4971607;28;20584;-69
2023/04/11 01:33:11;;;;;;;6.65;1.60;;;;;;;;;;4989301;28;20381;-69
2023/04/11 01:35:37;;;;;;;6.15;1.80;;;;;;;;;;4971267;28;20408;-69
2023/04/11 01:38:03;;;;;;;6.78;1.90;;;;;;;;;;4970846;28;20057;-69
2023/04/11 01:40:31;;;;;;;7.53;1.58;;;;;;;;;;4971087;28;20124;-69
2023/04/11 01:42:58;;;;;;;3.97;1.38;;;;;;;;;;4989285;28;20042;-69
2023/04/11 01:45:25;;;;;;;7.63;1.60;;;;;;;;;;4989393;28;20108;-69
2023/04/11 01:47:53;;;;;;;6.05;2.60;;;;;;;;;;4970778;28;20053;-69
2023/04/11 01:50:22;;;;;;;4.40;1.70;;;8.50;99.90;;;;;;4969460;28;20046;-69
2023/04/11 01:52:49;;;;;;;4.68;1.50;;;;;;;;;;4988987;28;20111;-69
2023/04/11 01:55:15;;;;;;;3.88;1.60;;;;;;;;;;4971236;28;20857;-69
2023/04/11 01:57:41;;;;;;;11.32;1.80;;;;;;;;;;4971362;28;20413;-69
2023/04/11 02:00:09;;;;;;;7.32;1.85;;;;;;;;;;4987365;28;20050;-69
2023/04/11 02:02:35;;;;;;;6.28;1.77;;;;;;;;;;4970891;28;20088;-69
2023/04/11 02:05:02;;;;;;;8.55;1.90;;;;;;;;;;4971549;28;20679;-69
2023/04/11 02:07:28;;;;;;;10.57;2.10;;;;;;;;;;4988454;28;20089;-69
2023/04/11 02:09:54;;;;;;;2.85;1.23;;;;;;;;;;4971148;28;20591;-69
2023/04/11 02:12:20;;;;;;;1.38;0.95;;;;;;;;;;4988733;28;20500;-69
2023/04/11 02:14:46;;;;;;;4.45;1.10;;;;;;;;;;4988789;28;20046;-69
2023/04/11 02:17:12;;;;;;;1.70;1.15;;;;;;;;;;4969835;28;20042;-69
2023/04/11 02:19:44;;;;;;;6.53;1.58;;;;;;;;;;4988431;28;20066;-69
2023/04/11 02:22:10;;;;;;;1.20;0.95;;;;;;;;;;4981568;28;20390;-69
2023/04/11 02:24:36;;;;;;;5.13;1.85;;;;;;;;;;4970702;28;20046;-69
2023/04/11 02:27:02;;;;;;;3.53;1.40;;;;;;;;;;4954481;28;20097;-69
2023/04/11 02:29:29;;;;;;;4.68;0.98;;;;;;;;;;4970160;28;20080;-69
2023/04/11 02:31:55;;;;;;;2.55;1.15;;;;;;;;;;4970127;28;20420;-69
2023/04/11 02:34:21;;;;;;;3.08;1.40;;;;;;;;;;4988255;28;20100;-69
2023/04/11 02:36:47;;;;;;;3.78;1.73;;;;;;;;;;4970095;28;20396;-69
2023/04/11 02:39:14;;;;;;;3.70;1.38;;;;;;;;;;4970813;28;20497;-69
2023/04/11 02:41:40;;;;;;;2.10;1.23;;;;;;;;;;4970301;28;20537;-69
2023/04/11 02:44:06;;;;;;;4.32;1.30;;;;;;;;;;4965072;28;20046;-69
2023/04/11 02:46:32;;;;;;;1.55;1.00;;;;;;;;;;4970166;28;20574;-69
2023/04/11 02:48:58;;;;;;;6.28;1.30;;;8.00;99.90;;;;;;4969953;28;20504;-69
2023/04/11 02:51:24;;;;;;;2.80;1.15;;;;;;;;;;4984977;28;20038;-69
2023/04/11 02:53:51;;;;;;;6.53;1.23;;;;;;;;;;4969999;28;20046;-69
2023/04/11 02:56:18;;;;;;;2.30;1.10;;;;;;;;;;4987770;28;20051;-69
2023/04/11 02:58:44;;;;;;;3.95;1.30;;;;;;;;;;4969803;28;20042;-69
2023/04/11 03:01:10;;;;;;;6.00;1.58;;;;;;;;;;4987793;28;20096;-69
2023/04/11 03:03:37;;;;;;;3.00;1.10;;;;;;;;;;4970498;28;20042;-69
2023/04/11 03:06:05;;;;;;;3.47;1.23;;;9.10;99.90;;;;;;4986288;28;20050;-69
2023/04/11 03:08:31;;;;;;;6.82;1.70;;;;;;;;;;4969529;28;20104;-69
2023/04/11 03:10:57;;;;;;;4.93;1.70;;;;;;;;;;4987654;28;20384;-69
2023/04/11 03:13:24;;;;;;;3.50;1.80;;;7.70;99.90;;;;;;4969761;28;20048;-69
2023/04/11 03:15:50;;;;;;;8.75;1.45;;;;;;;;;;4969802;28;20046;-69
2023/04/11 03:18:16;;;;;;;8.15;2.40;;;;;;;;;;4987866;28;20104;-69
2023/04/11 03:20:43;;;;;;;10.02;1.90;;;;;;;;;;4987513;28;20536;-69
2023/04/11 03:23:09;;;;;;;11.32;2.10;;;;;;;;;;4986327;28;20046;-69
2023/04/11 03:25:36;;;;;;;6.45;1.65;;;;;;;;;;4983250;28;20045;-69
2023/04/11 03:28:02;;;;;;;6.75;1.90;;;;;;;;;;4971448;28;20146;-69
2023/04/11 03:30:29;;;;;;;9.40;2.10;;;;;;;;;;4985777;28;20121;-69
2023/04/11 03:32:54;;;;;;;7.95;2.00;;;8.40;99.90;;;;;;4969834;28;20082;-69
2023/04/11 03:35:20;;;;;;;12.93;2.05;;;;;;;;;;4969849;28;20065;-69
2023/04/11 03:37:47;;;;;;;8.70;2.35;;;;;;;;;;4969649;28;20046;-69
2023/04/11 03:40:13;;;;;;;11.52;2.30;;;;;;;;;;4987288;28;20189;-69
2023/04/11 03:42:38;;;;;;;7.53;2.25;;;;;;;;;;4987211;28;20133;-69
2023/04/11 03:45:05;;;;;;;10.20;3.00;;;;;;;;;;4969427;28;20043;-69
2023/04/11 03:47:31;;;;;;;7.97;2.75;;;;;;;;;;4986792;28;20053;-69
2023/04/11 03:49:57;;;;;;;8.80;2.30;;;;;;;;;;4968975;28;20038;-69
2023/04/11 03:52:23;;;;;;;11.35;2.03;;;;;;;;;;4986897;28;20065;-69
2023/04/11 03:54:49;;;;;;;13.90;2.63;;;;;;;;;;4986710;28;20121;-69
2023/04/11 03:57:15;;;;;;;8.20;2.08;;;;;;;;;;4952935;28;20038;-69
2023/04/11 03:59:41;;;;;;;8.70;2.47;;;;;;;;;;4968770;28;20440;-69
2023/04/11 04:02:07;;;;;;;5.57;1.58;;;;;;;;;;4968928;28;20129;-69
2023/04/11 04:04:33;;;;;;;7.32;1.90;;;;;;;;;;4986597;28;20151;-69
2023/04/11 04:07:00;;;;;;;9.73;2.20;;;;;;;;;;4986099;28;20042;-69
2023/04/11 04:09:26;;;;;;;8.85;2.40;;;;;;;;;;4968988;28;20050;-69
2023/04/11 04:11:52;;;;;;;8.80;2.42;;;;;;;;;;4968145;28;20494;-69
2023/04/11 04:14:18;;;;;;;7.10;2.50;;;;;;;;;;4968668;28;20124;-69
2023/04/11 04:16:43;;;;;;;14.07;2.70;;;8.70;99.90;;;;;;4968269;28;20053;-69
2023/04/11 04:19:09;;;;;;;5.32;2.22;;;;;;;;;;4968452;28;20065;-69
2023/04/11 04:21:36;;;;;;;13.35;3.30;;;;;;;;;;4985011;28;20089;-69
2023/04/11 04:24:04;;;;;;;9.70;2.42;;;;;;;;;;4968305;28;20180;-69
2023/04/11 04:26:30;;;;;;;5.35;2.10;;;;;;;;;;4968844;28;20186;-69
2023/04/11 04:29:03;;;;;;;11.85;2.38;;;;;;;;;;4986022;28;20490;-69
2023/04/11 04:31:32;;;;;;;6.88;2.10;;;;;;;;;;4964679;28;20050;-69
2023/04/11 04:34:01;;;;;;;14.38;2.90;;;;;;;;;;4969318;28;20133;-69
2023/04/11 04:36:28;;;;;;;10.90;2.40;;;;;;;;;;4986381;28;20046;-69
2023/04/11 04:39:00;;;;;;;9.27;1.90;;;;;;;;;;4968107;28;20061;-69
2023/04/11 04:41:32;;;;;;;5.97;2.28;;;;;;;;;;4972584;28;20396;-69
2023/04/11 04:43:58;;;;;;;9.35;2.30;;;;;;;;;;4989205;28;20050;-69
2023/04/11 04:46:24;;;;;;;10.60;2.90;;;8.60;99.90;;;;;;4972652;28;20397;-69
2023/04/11 04:48:50;;;;;;;9.27;2.03;;;;;;;;;;4990256;28;20035;-69
2023/04/11 04:51:16;;;;;;;5.68;2.20;;;;;;;;;;4972502;28;20768;-69
2023/04/11 04:53:42;;;;;;;8.52;2.10;;;;;;;;;;4972101;28;20053;-69
2023/04/11 04:59:07;;;;;;;15.52;2.95;;;;;;;;;;5058391;23;20047;-86
2023/04/11 05:01:33;;;;;;;12.95;2.63;;;;;;;;;;4971681;28;20127;-85
2023/04/11 05:04:00;;;;;;;4.90;2.30;;;;;;;;;;4956198;28;20041;-86
2023/04/11 05:06:33;;;;;;;10.13;3.08;;;;;;;;;;4962258;28;20049;-86
2023/04/11 05:09:00;;;;;;;4.85;2.05;;;;;;;;;;4970747;28;20630;-86
2023/04/11 05:11:27;;;;;;;6.78;1.65;;;;;;;;;;4955906;28;20038;-86
2023/04/11 05:13:53;;;;;;;10.10;2.03;;;;;;;;;;4972247;28;20487;-85
2023/04/11 05:16:20;;;;;;;11.38;2.38;;;;;;;;;;4955530;28;20042;-86
2023/04/11 05:18:46;;;;;;;8.40;1.95;;;;;;;;;;4971650;28;20520;-86
2023/04/11 05:21:13;;;;;;;6.28;2.42;;;;;;;;;;4968993;28;20498;-86
2023/04/11 05:23:39;;;;;;;11.68;2.75;;;;;;;;;;4955405;28;20042;-86
2023/04/11 05:26:05;;;;;;;11.52;2.65;;;;;;;;;;4955830;28;20039;-87
2023/04/11 05:28:31;;;;;;;7.45;2.00;;;;;;;;;;4971384;28;20042;-86
2023/04/11 05:30:57;;;;;;;11.05;2.20;;;;;;;;;;4955617;28;20404;-86
2023/04/11 05:33:24;;;;;;;8.15;2.00;;;;;;;;;;4955932;28;20092;-85
2023/04/11 05:35:50;;;;;;;6.35;1.90;;;;;;;;;;4970717;28;20042;-87
2023/04/11 05:38:16;;;;;;;9.90;2.33;;;;;;;;;;4971802;28;20085;-86
2023/04/11 05:40:42;;;;;;;8.75;2.25;;;;;;;;;;4968898;28;20046;-86
2023/04/11 05:43:13;;;;;;;8.35;2.20;;;;;;;;;;4955362;28;20676;-86
2023/04/11 05:45:46;;;;;;;7.20;2.10;;;;;;;;;;4971616;28;20082;-85
2023/04/11 05:48:17;;;;;;;9.02;2.03;;;;;;;;;;4955299;28;20070;-85
2023/04/11 05:50:43;;;;;;;8.10;2.08;;;;;;;;;;4954788;28;20480;-86
2023/04/11 05:53:09;;;;;;;13.23;2.50;;;;;;;;;;4955347;28;20550;-86
2023/04/11 05:55:35;;;;;;;11.68;2.63;;;;;;;;;;4970416;28;20073;-86
2023/04/11 05:58:01;;;;;;;4.10;1.80;;;;;;;;;;4986412;28;20344;-86
2023/04/11 06:00:29;;;;;;;4.80;1.85;;;;;;;;;;4954077;28;20045;-86
2023/04/11 06:02:55;;;;;;;13.98;3.17;;;;;;;;;;4953479;28;20481;-86
2023/04/11 06:05:21;;;;;;;4.75;2.10;;;;;;;;;;4969991;28;20130;-85
2023/04/11 06:07:47;;;;;;;10.45;2.42;;;;;;;;;;4954126;28;20610;-86
2023/04/11 06:10:13;;;;;;;5.63;1.65;;;;;;;;;;4969447;28;20093;-86
2023/04/11 06:12:39;;;;;;;13.68;2.85;;;;;;;;;;4966035;28;20436;-86
2023/04/11 06:15:06;;;;;;;6.82;2.17;;;;;;;;;;4946298;28;20041;-86
2023/04/11 06:17:32;;;;;;;9.30;2.20;;;;;;;;;;4983909;28;20050;-86
2023/04/11 06:19:57;;;;;;;6.40;2.30;;;;;;;;;;4952806;28;20136;-86
2023/04/11 06:22:23;;;;;;;7.57;2.63;;;;;;;;;;4966117;28;20073;-87
2023/04/11 06:24:49;;;;;;;13.98;2.28;;;;;;;;;;4952820;28;20170;-87
2023/04/11 06:27:15;;;;;;;11.07;1.92;;;;;;;;;;4967592;28;20046;-86
2023/04/11 06:29:42;;;;;;;6.60;2.28;;;;;;;;;;4955077;28;20096;-87
2023/04/11 06:32:08;;;;;;;11.02;2.63;;;;;;;;;;4968106;28;20558;-86
2023/04/11 06:34:34;;;;;;;8.43;2.45;;;;;;;;;;4965799;28;20046;-86
2023/04/11 06:37:00;;;;;;;13.68;1.95;;;;;;;;;;4952672;28;20105;-86
2023/04/11 06:39:26;;;;;;;8.60;2.08;;;;;;;;;;4958050;28;20046;-85
2023/04/11 06:41:52;;;;;;;5.88;2.10;;;;;;;;;;4953016;28;20495;-86
2023/04/11 06:44:18;;;;;;;11.05;2.28;;;;;;;;;;4967967;28;20054;-86
2023/04/11 06:46:44;;;;;;;8.63;2.00;;;;;;;;;;4968438;28;20531;-86
2023/04/11 06:49:10;;;;;;;8.73;1.90;;;;;;;;;;4952080;28;20528;-87
2023/04/11 06:51:36;;;;;;;8.35;2.17;;;;;;;;;;4951226;28;20044;-85
2023/04/11 06:54:03;;;;;;;9.43;1.73;;;;;;;;;;4955861;28;20041;-85
2023/04/11 06:56:29;;;;;;;12.93;2.40;;;;;;;;;;4951840;28;20053;-87
2023/04/11 06:58:55;;;;;;;11.63;3.22;;;;;;;;;;4928986;28;1141480;-85
2023/04/11 07:01:24;;;;;;;12.98;2.40;;;;;;;;;;4955157;28;20062;-87
2023/04/11 07:03:51;;;;;;;9.98;2.92;;;;;;;;;;4951505;28;20133;-86
2023/04/11 07:06:18;;;;;;;12.43;2.78;;;;;;;;;;4951325;28;20516;-86
2023/04/11 07:08:44;;;;;;;13.15;2.17;;;;;;;;;;4952497;28;20138;-85
2023/04/11 07:11:10;;;;;;;12.27;2.03;;;;;;;;;;4951905;28;20271;-86
2023/04/11 07:13:36;;;;;;;12.70;2.35;;;;;;;;;;4965781;28;20038;-85
2023/04/11 07:16:02;;;;;;;10.18;2.25;;;;;;;;;;4953082;28;20045;-87
2023/04/11 07:18:29;;;;;;;12.07;2.15;;;;;;;;;;4965819;28;20503;-85
2023/04/11 07:20:55;;;;;;;7.97;1.88;;;;;;;;;;4967284;28;20045;-87
2023/04/11 07:23:22;;;;;;;12.25;2.33;;;;;;;;;;4968338;28;20069;-86
2023/04/11 07:25:48;;;;;;;9.73;2.60;;;;;;;;;;4956900;28;20046;-86
2023/04/11 07:28:15;;;;;;;11.75;2.13;;;;;;;;;;4950999;28;20500;-86
2023/04/11 07:30:41;;;;;;;8.32;2.00;;;;;;;;;;4968401;28;20053;-85
2023/04/11 07:33:07;;;;;;;9.82;2.03;;;;;;;;;;4951100;28;20060;-87
2023/04/11 07:35:33;;;;;;;10.70;1.75;;;;;;;;;;4952102;28;20084;-86
2023/04/11 07:38:00;;;;;;;9.43;1.95;;;;;;;;;;4964753;28;20046;-86
2023/04/11 07:40:26;;;;;;;10.15;2.00;;;;;;;;;;4984801;28;20869;-86
2023/04/11 07:42:52;;;;;;;14.25;2.75;;;;;;;;;;4952353;28;20046;-85
2023/04/11 07:45:18;;;;;;;14.13;2.45;;;;;;;;;;4954950;28;20125;-85
2023/04/11 07:47:44;;;;;;;9.10;2.28;;;;;;;;;;4953792;28;20150;-86
2023/04/11 07:50:10;;;;;;;5.55;2.08;;;;;;;;;;4964828;28;20046;-86
2023/04/11 07:52:36;;;;;;;10.68;2.80;;;;;;;;;;4952141;28;20049;-86
2023/04/11 07:55:03;;;;;;;11.98;2.35;;;;;;;;;;4966120;28;20566;-86
2023/04/11 07:57:29;;;;;;;12.00;2.03;;;;;;;;;;4952530;28;20066;-86
2023/04/11 07:59:56;;;;;;;7.10;2.00;;;;;;;;;;4950603;28;20046;-87
2023/04/11 08:02:22;;;;;;;10.48;2.10;;;;;;;;;;4966515;28;20546;-86
2023/04/11 08:04:48;;;;;;;7.25;2.03;;;;;;;;;;4950849;28;20088;-85
2023/04/11 08:07:14;;;;;;;13.05;2.55;;;;;;;;;;4968287;28;20133;-85
2023/04/11 08:09:41;;;;;;;10.95;2.58;;;;;;;;;;4980339;28;20095;-88
2023/04/11 08:12:08;;;;;;;3.25;1.52;;;;;;;;;;4951554;28;20040;-85
2023/04/11 08:14:34;;;;;;;8.98;2.20;;;;;;;;;;4984050;28;20543;-85
2023/04/11 08:17:00;;;;;;;6.72;1.70;;;;;;;;;;4965784;28;20057;-85
2023/04/11 08:19:26;;;;;;;12.35;2.38;;;;;;;;;;4968189;28;20109;-85
2023/04/11 08:21:53;;;;;;;5.30;1.60;;;;;;;;;;4965146;28;20046;-85
2023/04/11 08:24:19;;;;;;;9.98;1.75;;;;;;;;;;4948305;28;20050;-85
2023/04/11 08:26:45;;;;;;;7.55;2.50;;;;;;;;;;4966164;28;20450;-85
2023/04/11 08:29:11;;;;;;;8.40;2.33;;;;;;;;;;4951909;28;20050;-85
2023/04/11 08:31:41;;;;;;;6.90;2.13;;;;;;;;;;4967830;28;20129;-85
2023/04/11 08:34:07;;;;;;;7.30;2.30;;;;;;;;;;4952099;28;20034;-86
2023/04/11 08:36:33;;;;;;;9.95;2.40;;;;;;;;;;4952704;28;20049;-85
2023/04/11 08:38:59;;;;;;;8.55;1.67;;;;;;;;;;4951584;28;20042;-85
2023/04/11 08:41:29;;;;;;;10.07;1.85;;;;;;;;;;4967298;28;20049;-86
2023/04/11 08:43:56;;;;;;;6.55;1.83;;;;;;;;;;4951341;28;20523;-86
2023/04/11 08:46:22;;;;;;;7.05;1.75;;;;;;;;;;4970897;28;20041;-86
2023/04/11 08:48:48;;;;;;;8.88;1.90;;;;;;;;;;4955999;28;20588;-86
2023/04/11 08:51:20;;;;;;;6.97;1.73;;;;;;;;;;4969947;28;20563;-87
2023/04/11 08:53:46;;;;;;;8.90;1.90;;;;;;;;;;4964539;28;20088;-86
2023/04/11 08:56:18;;;;;;;8.30;1.65;;;;;;;;;;4954324;28;20062;-86
2023/04/11 08:58:45;;;;;;;5.95;1.70;;;;;;;;;;4968016;28;20133;-86
2023/04/11 09:01:25;;;;;;;9.07;2.78;;;;;;;;;;4952299;28;20061;-86
2023/04/11 09:03:51;;;;;;;12.18;2.33;;;;;;;;;;4947975;28;20101;-86
2023/04/11 09:06:17;;;;;;;9.30;2.03;;;;;;;;;;4965673;28;20046;-87
2023/04/11 09:08:43;;;;;;;9.60;1.70;;;;;;;;;;4954255;28;20049;-87
2023/04/11 09:11:09;;;;;;;5.90;1.80;;;;;;;;;;4964635;28;20581;-85
2023/04/11 09:13:35;;;;;;;9.93;2.03;;;;;;;;;;4945078;28;20092;-86
2023/04/11 09:16:04;;;;;;;7.57;2.00;;;;;;;;;;4965814;28;20516;-87
2023/04/11 09:18:31;;;;;;;9.95;2.15;;;;;;;;;;4978119;28;20048;-86
2023/04/11 09:20:59;;;;;;;7.50;2.03;;;;;;;;;;4965158;28;20046;-86
2023/04/11 09:23:26;;;;;;;6.97;2.03;;;;;;;;;;4951715;28;20132;-86
2023/04/11 09:25:52;;;;;;;6.30;1.48;;;;;;;;;;4969407;28;20046;-87
2023/04/11 09:28:18;;;;;;;8.30;1.45;;;;;;;;;;4956224;28;20039;-87
2023/04/11 09:30:49;;;;;;;4.28;1.42;;;;;;;;;;4969385;28;20038;-87
2023/04/11 09:33:28;;;;;;;8.77;2.42;;;;;;;;;;4971168;28;20050;-87
2023/04/11 09:35:55;;;;;;;9.15;2.53;;;;;;;;;;4974472;28;20070;-87
2023/04/11 09:38:32;;;;;;;5.70;1.60;;;;;;;;;;4974709;28;20050;-87
2023/04/11 09:41:01;;;;;;;8.43;2.50;;;;;;;;;;4971414;28;20050;-87
2023/04/11 09:43:28;;;;;;;9.00;2.92;;;;;;;;;;4972848;28;20046;-87
2023/04/11 09:46:10;;;;;;;8.55;1.77;;;;;;;;;;4964399;28;20100;-88
2023/04/11 09:48:37;;;;;;;9.30;1.67;;;;;;;;;;4958856;28;20890;-87
2023/04/11 09:51:05;;;;;;;8.35;2.30;;;;;;;;;;4970322;28;20042;-87
2023/04/11 09:53:34;;;;;;;15.85;2.92;;;11.20;99.90;;;;;;4967675;28;20042;-87
2023/04/11 09:56:00;;;;;;;8.98;2.83;;;;;;;;;;4955617;28;20472;-87
2023/04/11 09:58:28;;;;;;;10.18;2.17;;;;;;;;;;4979925;28;20497;-87
2023/04/11 10:00:55;;;;;;;9.00;2.38;;;;;;;;;;4959198;28;20173;-88
2023/04/11 10:03:22;;;;;;;7.70;1.80;;;;;;;;;;4955778;28;20458;-87
2023/04/11 10:05:52;;;;;;;4.53;2.10;;;;;;;;;;4955766;28;20042;-88
2023/04/11 10:08:29;;;;;;;6.63;1.83;;;;;;;;;;4967845;28;20492;-87
2023/04/11 10:10:55;;;;;;;14.30;2.45;;;;;;;;;;4961262;28;20088;-87
2023/04/11 10:13:38;;;;;;;7.60;2.22;;;;;;;;;;4967113;28;20399;-87
2023/04/11 10:16:11;;;;;;;8.82;2.80;;;;;;;;;;4951928;28;20042;-88
2023/04/11 10:18:37;;;;;;;15.55;2.05;;;;;;;;;;4970074;28;20038;-87
2023/04/11 10:21:04;;;;;;;5.07;1.70;;;;;;;;;;4954146;28;20493;-88
2023/04/11 10:23:50;;;;;;;7.90;1.88;;;;;;;;;;4971591;28;20042;-88
2023/04/11 10:26:16;;;;;;;8.43;2.13;;;;;;;;;;4969793;28;20046;-89
2023/04/11 10:28:42;;;;;;;12.88;3.20;;;;;;;;;;4970923;28;20101;-88
2023/04/11 10:31:12;;;;;;;6.90;1.73;;;12.50;99.90;;;;;;4966626;28;20149;-87
2023/04/11 10:33:39;;;;;;;8.07;1.80;;;12.70;99.90;;;;;;4953967;28;20125;-88
2023/04/11 10:36:11;;;;;;;11.43;2.80;;;;;;;;;;4953668;28;20073;-88
2023/04/11 10:38:42;;;;;;;7.65;1.80;;;12.50;99.90;;;;;;4970405;28;20070;-88
2023/04/11 10:41:18;;;;;;;12.48;2.33;;;12.10;99.90;;;;;;4956444;28;20046;-88
2023/04/11 10:43:47;;;;;;;6.32;1.83;;;;;;;;;;4954011;28;20144;-87
2023/04/11 10:46:18;;;;;;;6.68;1.45;;;11.30;99.90;;;;;;4953880;28;20051;-88
2023/04/11 10:48:57;;;;;;;10.43;1.70;;;;;;;;;;4970069;28;20047;-87
2023/04/11 10:51:25;;;;;;;8.35;1.60;;;;;;;;;;4969188;28;20127;-88
2023/04/11 10:54:25;;;;;;;10.35;1.58;;;11.30;99.90;;;;;;4959530;28;20437;-88
2023/04/11 10:56:51;;;;;;;5.07;1.85;;;;;;;;;;4951827;28;20276;-88
2023/04/11 10:59:35;;;;;;;7.68;1.63;;;;;;;;;;4970623;28;20544;-88
2023/04/11 11:02:01;;;;;;;7.60;1.63;;;;;;;;;;4964937;28;20050;-88
2023/04/11 11:04:31;;;;;;;9.40;1.60;;;;;;;;;;4955696;28;20084;-88
2023/04/11 11:07:02;;;;;;;7.18;1.73;;;;;;;;;;4969593;28;20129;-88
2023/04/11 11:09:28;;;;;;;6.90;1.52;;;;;;;;;;4954079;28;20038;-89
2023/04/11 11:12:14;;;;;;;9.60;1.73;;;;;;;;;;4969302;28;20223;-88
2023/04/11 11:14:41;;;;;;;7.53;2.00;;;;;;;;;;4968097;28;20046;-89
2023/04/11 11:17:07;;;;;;;9.45;2.15;;;;;;;;;;4958512;28;20177;-89
2023/04/11 11:19:34;;;;;;;8.98;1.90;;;;;;;;;;4968767;28;20053;-89
2023/04/11 11:22:02;;;;;;;10.73;2.63;;;;;;;;;;4969321;28;20050;-89
2023/04/11 11:24:28;;;;;;;7.22;2.25;;;;;;;;;;4964372;28;20050;-89
2023/04/11 11:26:55;;;;;;;10.88;1.83;;;;;;;;;;4953508;28;20046;-90
2023/04/11 11:29:31;;;;;;;9.45;2.67;;;;;;;;;;4955961;28;20149;-89
2023/04/11 11:31:58;;;;;;;7.55;1.70;;;;;;;;;;4954043;28;20496;-89
2023/04/11 11:34:29;;;;;;;10.88;2.30;;;10.60;99.90;;;;;;4954455;28;20447;-89
2023/04/11 11:36:56;;;;;;;10.65;1.80;;;;;;;;;;4949772;28;20389;-89
2023/04/11 11:39:22;;;;;;;6.80;2.30;;;;;;;;;;4952631;28;20560;-89
2023/04/11 11:41:48;;;;;;;10.52;1.85;;;;;;;;;;4951939;28;20451;-89
2023/04/11 11:44:26;;;;;;;12.23;2.55;;;11.20;99.90;;;;;;4951504;28;20527;-88
2023/04/11 11:47:02;;;;;;;12.25;3.03;;;;;;;;;;4954165;28;20144;-89
2023/04/11 11:49:43;;;;;;;7.93;1.92;;;;;;;;;;4968116;28;20038;-88
2023/04/11 11:52:09;;;;;;;10.73;2.20;;;;;;;;;;4969877;28;20089;-89
2023/04/11 11:54:46;;;;;;;10.68;2.42;;;;;;;;;;4962246;28;20046;-88
2023/04/11 11:57:12;;;;;;;11.15;2.20;;;;;;;;;;4965433;28;20066;-89
2023/04/11 11:59:38;;;;;;;8.00;2.45;;;;;;;;;;4980962;28;20051;-88
2023/04/11 12:02:04;;;;;;;6.40;2.38;;;;;;;;;;4966464;28;20049;-89
2023/04/11 12:04:31;;;;;;;11.57;2.22;;;;;;;;;;4962200;28;20042;-88
2023/04/11 12:06:57;;;;;;;6.90;2.05;;;;;;;;;;4985681;28;20072;-88
2023/04/11 12:09:30;;;;;;;9.90;2.20;;;;;;;;;;4951143;28;20042;-89
2023/04/11 12:11:56;;;;;;;7.88;1.52;;;;;;;;;;4977866;28;20449;-88
2023/04/11 12:14:22;;;;;;;10.48;2.20;;;;;;;;;;4963944;28;20547;-89
2023/04/11 12:16:52;;;;;;;12.70;2.22;;;11.90;99.90;;;;;;4974230;28;20521;-92
2023/04/11 12:19:18;;;;;;;12.23;3.40;;;;;;;;;;4951906;28;20046;-91
2023/04/11 12:21:44;;;;;;;10.88;1.92;;;;;;;;;;4976613;28;20045;-90
2023/04/11 12:24:29;;;;;;;9.85;2.20;;;;;;;;;;4953359;28;20053;-90
2023/04/11 12:26:55;;;;;;;11.60;1.85;;;;;;;;;;4968666;28;20050;-89
2023/04/11 12:29:20;;;;;;;13.38;3.13;;;;;;;;;;4953057;28;20051;-89
2023/04/11 12:31:46;;;;;;;8.10;2.03;;;;;;;;;;4953619;28;20038;-88
2023/04/11 12:34:12;;;;;;;8.50;1.65;;;;;;;;;;4953162;28;20154;-90
2023/04/11 12:36:39;;;;;;;7.10;2.38;;;;;;;;;;4966855;28;20123;-90
2023/04/11 12:39:05;;;;;;;9.40;2.45;;;;;;;;;;4981307;28;20650;-88
2023/04/11 12:41:31;;;;;;;13.50;2.35;;;;;;;;;;4986004;28;20041;-89
2023/04/11 12:44:00;;;;;;;15.32;3.05;;;;;;;;;;4965609;28;20076;-89
2023/04/11 12:46:26;;;;;;;10.90;2.30;;;;;;;;;;4954599;28;20042;-89
2023/04/11 12:48:52;;;;;;;14.07;2.20;;;;;;;;;;4952201;28;20097;-89
2023/04/11 12:51:18;;;;;;;10.98;2.25;;;;;;;;;;4968825;28;20042;-88
2023/04/11 12:53:44;;;;;;;9.73;2.22;;;;;;;;;;4968687;28;20038;-88
2023/04/11 12:56:10;;;;;;;7.43;1.60;;;;;;;;;;4952118;28;20080;-88
2023/04/11 12:58:36;;;;;;;11.95;2.72;;;;;;;;;;4950633;28;20058;-89
2023/04/11 13:01:04;;;;;;;10.40;1.90;;;;;;;;;;4951579;28;20495;-88
2023/04/11 13:03:30;;;;;;;11.60;2.47;;;;;;;;;;4988449;28;20046;-89
2023/04/11 13:05:56;;;;;;;10.93;2.55;;;;;;;;;;4971648;28;20042;-91
2023/04/11 13:08:22;;;;;;;7.50;2.40;;;;;;;;;;4972374;28;20038;-88
2023/04/11 13:10:48;;;;;;;8.40;1.83;;;;;;;;;;4953828;28;20050;-88
2023/04/11 13:13:14;;;;;;;4.43;1.92;;;;;;;;;;4971954;28;20081;-89
2023/04/11 13:15:40;;;;;;;8.82;2.00;;;;;;;;;;4988560;28;20507;-87
2023/04/11 13:18:07;;;;;;;10.02;1.95;;;;;;;;;;4955989;28;20056;-88
2023/04/11 13:20:33;;;;;;;7.05;1.60;;;;;;;;;;4970971;28;20038;-88
2023/04/11 13:22:59;;;;;;;9.18;2.50;;;;;;;;;;4972260;28;20133;-88
2023/04/11 13:25:25;;;;;;;10.95;1.73;;;;;;;;;;4967529;28;20571;-88
2023/04/11 13:27:51;;;;;;;10.38;2.20;;;;;;;;;;4971896;28;20052;-88
2023/04/11 13:30:17;;;;;;;10.25;2.08;;;;;;;;;;4970743;28;20121;-89
2023/04/11 13:32:43;;;;;;;8.48;2.17;;;;;;;;;;4953795;28;20081;-87
2023/04/11 13:35:09;;;;;;;9.38;1.33;;;;;;;;;;4966412;28;20159;-88
2023/04/11 13:37:35;;;;;;;7.50;2.03;;;;;;;;;;4971350;28;20050;-87
2023/04/11 13:40:01;;;;;;;7.38;2.08;;;;;;;;;;4955633;28;20046;-88
2023/04/11 13:42:28;;;;;;;9.73;1.95;;;;;;;;;;4968661;28;20046;-87
2023/04/11 13:44:53;;;;;;;9.13;2.10;;;;;;;;;;4970015;28;20089;-88
2023/04/11 13:47:19;;;;;;;11.98;2.65;;;;;;;;;;4971617;28;20266;-88
2023/04/11 13:49:45;;;;;;;8.27;1.95;;;;;;;;;;4968460;28;20519;-89
2023/04/11 13:52:11;;;;;;;10.55;2.40;;;;;;;;;;4971731;28;20100;-89
2023/04/11 13:54:37;;;;;;;7.88;2.13;;;;;;;;;;4955150;28;20431;-90
2023/04/11 13:57:06;;;;;;;9.70;2.25;;;;;;;;;;4966617;28;20046;-88
2023/04/11 13:59:32;;;;;;;12.80;3.40;;;;;;;;;;4987082;28;20050;-88
2023/04/11 14:01:58;;;;;;;9.13;1.40;;;;;;;;;;4970890;28;20088;-90
2023/04/11 14:04:24;;;;;;;7.43;1.30;;;;;;;;;;4983914;28;20108;-89
2023/04/11 14:06:52;;;;;;;11.48;1.95;;;;;;;;;;4953751;28;20666;-90
2023/04/11 14:09:18;;;;;;;6.60;1.63;;;;;;;;;;4966426;28;20057;-87
2023/04/11 14:11:44;;;;;;;5.00;1.90;;;;;;;;;;4955135;28;20572;-89
2023/04/11 14:14:10;;;;;;;9.90;1.58;;;;;;;;;;4971438;28;20176;-90
2023/04/11 14:16:36;;;;;;;4.95;1.50;;;;;;;;;;4955643;28;20043;-89
2023/04/11 14:19:02;;;;;;;6.03;1.45;;;;;;;;;;4986530;28;20042;-89
2023/04/11 14:21:28;;;;;;;7.88;1.80;;;;;;;;;;4970027;28;20053;-89
2023/04/11 14:23:54;;;;;;;6.10;1.60;;;;;;;;;;4955119;28;20134;-88
2023/04/11 14:26:20;;;;;;;11.68;1.98;;;;;;;;;;4970184;28;20141;-89
2023/04/11 14:28:46;;;;;;;5.40;1.40;;;;;;;;;;4952685;28;20053;-88
2023/04/11 14:31:12;;;;;;;7.40;2.00;;;;;;;;;;4965493;28;20046;-89
2023/04/11 14:33:38;;;;;;;10.65;2.50;;;;;;;;;;4954062;28;20042;-88